Time;durP1;ratioP1;P1;durP2;ratioP2;P2;SDS_P1;SDS_P2;PMS_P1;PMS_P2;Temp;Humidity;BMP_temperature;BMP_pressure;BME280_temperature;BME280_humidity;BME280_pressure;Samples;Min_cycle;Max_cycle;Signal;HPM_P1;HPM_P2
2021/10/20 00:00:52;;;;;;;14.25;12.25;;;18.10;99.90;;;18.36;80.29;100819.09;4843071;29;20512;-73
2021/10/20 00:03:21;;;;;;;13.95;12.63;;;18.10;99.90;;;18.34;80.30;100812.91;4843084;29;20053;-73
2021/10/20 00:05:50;;;;;;;14.15;11.60;;;18.10;99.90;;;18.39;79.96;100818.97;4843255;29;20401;-73
2021/10/20 00:08:18;;;;;;;15.15;11.45;;;18.10;99.90;;;18.42;79.97;100807.28;4841978;29;20053;-73
2021/10/20 00:10:48;;;;;;;13.75;11.68;;;18.10;99.90;;;18.23;79.89;100769.59;4843106;29;20042;-73
2021/10/20 00:13:16;;;;;;;20.13;11.68;;;18.10;99.90;;;18.40;79.72;100798.41;4843010;29;20094;-73
2021/10/20 00:15:45;;;;;;;13.85;11.98;;;18.10;99.90;;;18.40;79.36;100799.31;4842840;29;20071;-73
2021/10/20 00:18:15;;;;;;;16.35;12.35;;;18.10;99.90;;;18.42;79.20;100791.19;4842769;29;20046;-73
2021/10/20 00:20:45;;;;;;;13.63;11.52;;;18.10;99.90;;;18.48;79.03;100794.56;4843213;29;20070;-73
2021/10/20 00:23:14;;;;;;;15.60;11.93;;;18.20;99.90;;;18.50;78.69;100798.06;4841753;29;20386;-73
2021/10/20 00:25:42;;;;;;;15.27;12.20;;;18.20;99.90;;;18.48;78.74;100783.84;4842703;29;20054;-73
2021/10/20 00:28:12;;;;;;;14.32;12.27;;;18.20;99.90;;;18.52;78.69;100785.50;4842668;29;20106;-73
2021/10/20 00:30:41;;;;;;;15.35;12.07;;;18.20;99.90;;;18.30;78.57;100757.72;4842921;29;20077;-73
2021/10/20 00:33:09;;;;;;;12.98;11.65;;;18.20;99.90;;;18.43;78.44;100782.25;4842789;29;20133;-73
2021/10/20 00:35:39;;;;;;;15.30;12.85;;;18.20;99.90;;;18.44;78.46;100774.19;4842545;29;20458;-73
2021/10/20 00:38:07;;;;;;;17.40;11.93;;;18.10;99.90;;;18.41;78.54;100760.84;4842841;29;20049;-73
2021/10/20 00:40:36;;;;;;;15.32;12.57;;;18.10;99.90;;;18.47;78.21;100757.97;4842523;29;20054;-73
2021/10/20 00:43:04;;;;;;;18.48;12.10;;;18.10;99.90;;;18.23;77.96;100726.75;4842495;29;20125;-73
2021/10/20 00:45:33;;;;;;;16.48;11.80;;;18.10;99.90;;;18.40;78.17;100774.31;4842284;29;20149;-73
2021/10/20 00:48:01;;;;;;;18.55;13.55;;;18.10;99.90;;;18.43;77.88;100761.72;4842634;29;20050;-73
2021/10/20 00:50:30;;;;;;;14.48;12.98;;;18.10;99.90;;;18.42;77.68;100768.00;4842421;29;20125;-73
2021/10/20 00:53:00;;;;;;;16.58;12.65;;;18.20;99.90;;;18.43;77.89;100767.06;4841243;29;20164;-73
2021/10/20 00:55:28;;;;;;;17.95;12.70;;;18.10;99.90;;;18.46;77.65;100769.66;4842101;29;20050;-73
2021/10/20 00:57:57;;;;;;;14.57;12.98;;;18.20;99.90;;;18.22;77.80;100730.34;4842361;29;20574;-73
2021/10/20 01:00:25;;;;;;;17.48;12.90;;;18.10;99.90;;;18.35;77.70;100730.78;4842315;29;20046;-73
2021/10/20 01:02:55;;;;;;;14.07;12.57;;;18.10;99.90;;;18.42;77.64;100751.94;4841380;29;20479;-73
2021/10/20 01:05:25;;;;;;;16.50;12.50;;;18.10;99.90;;;18.38;77.73;100739.56;4842639;29;20069;-73
2021/10/20 01:07:54;;;;;;;17.60;13.43;;;18.10;99.90;;;18.45;77.51;100738.41;4846631;29;20826;-73
2021/10/20 01:10:24;;;;;;;16.67;12.68;;;18.10;99.90;;;18.44;77.33;100736.69;4846070;29;20049;-73
2021/10/20 01:12:53;;;;;;;17.42;13.43;;;18.10;99.90;;;18.40;77.51;100734.13;4845987;29;20050;-73
2021/10/20 01:15:25;;;;;;;15.88;12.95;;;18.10;99.90;;;18.42;77.28;100721.56;4845877;29;20137;-73
2021/10/20 01:17:55;;;;;;;17.83;13.15;;;18.10;99.90;;;18.37;77.37;100740.47;4845961;29;20050;-73
2021/10/20 01:20:26;;;;;;;18.80;13.18;;;18.10;99.90;;;18.31;77.41;100746.06;4846077;29;20062;-73
2021/10/20 01:22:56;;;;;;;15.95;13.30;;;18.00;99.90;;;18.34;77.36;100724.53;4846058;29;20465;-73
2021/10/20 01:25:24;;;;;;;19.40;12.60;;;18.00;99.90;;;18.29;77.36;100733.69;4845878;29;20077;-73
2021/10/20 01:27:52;;;;;;;17.02;13.25;;;18.00;99.90;;;18.30;77.31;100724.69;4845739;29;20074;-73
2021/10/20 01:30:21;;;;;;;21.52;13.50;;;18.00;99.90;;;18.36;77.33;100724.47;4845617;29;20103;-73
2021/10/20 01:32:49;;;;;;;14.77;13.10;;;18.00;99.90;;;18.30;77.17;100717.56;4845556;29;20042;-73
2021/10/20 01:35:18;;;;;;;17.90;13.02;;;18.00;99.90;;;18.27;77.05;100708.78;4845586;29;20050;-73
2021/10/20 01:37:46;;;;;;;18.55;14.57;;;18.00;99.90;;;18.24;77.04;100708.88;4845552;29;20129;-73
2021/10/20 01:40:16;;;;;;;18.65;14.27;;;17.90;99.90;;;18.31;76.53;100723.78;4845487;29;20054;-73
2021/10/20 01:42:44;;;;;;;17.43;14.23;;;17.90;99.90;;;18.27;76.54;100709.66;4845503;29;20042;-73
2021/10/20 01:45:13;;;;;;;20.58;14.40;;;18.00;99.90;;;18.35;76.20;100722.75;4845803;29;20069;-73
2021/10/20 01:47:42;;;;;;;20.95;15.07;;;18.00;99.90;;;18.31;76.22;100710.41;4845656;29;20058;-73
2021/10/20 01:50:14;;;;;;;19.13;15.05;;;18.00;99.90;;;18.30;76.11;100693.44;4845612;29;20110;-73
2021/10/20 01:52:43;;;;;;;18.45;14.45;;;18.00;99.90;;;18.31;75.91;100697.00;4845327;29;20162;-73
2021/10/20 01:55:12;;;;;;;19.90;15.13;;;18.00;99.90;;;18.28;75.90;100681.03;4845816;29;20125;-73
2021/10/20 01:57:42;;;;;;;18.77;15.13;;;18.00;99.90;;;17.78;75.83;100606.25;4843845;29;20057;-73
2021/10/20 02:00:12;;;;;;;19.35;14.40;;;18.00;99.90;;;18.26;75.89;100673.06;4844987;29;20050;-73
2021/10/20 02:02:41;;;;;;;21.45;14.75;;;18.00;99.90;;;18.32;75.67;100672.84;4845499;29;20106;-73
2021/10/20 02:05:11;;;;;;;16.73;14.85;;;18.00;99.90;;;18.33;75.57;100679.94;4845074;29;20129;-73
2021/10/20 02:07:41;;;;;;;16.65;14.85;;;18.00;99.90;;;18.28;75.59;100662.28;4845298;29;20049;-73
2021/10/20 02:10:12;;;;;;;22.48;15.52;;;18.00;99.90;;;18.30;75.26;100669.34;4845253;29;20041;-73
2021/10/20 02:12:42;;;;;;;21.17;15.75;;;18.00;99.90;;;18.29;75.20;100662.22;4843694;29;20107;-73
2021/10/20 02:15:11;;;;;;;20.15;13.95;;;18.00;99.90;;;18.16;75.18;100641.34;4845360;29;20085;-73
2021/10/20 02:17:40;;;;;;;18.05;15.27;;;18.00;99.90;;;18.24;75.39;100650.84;4843974;29;20125;-73
2021/10/20 02:20:12;;;;;;;16.85;15.05;;;18.00;99.90;;;18.24;74.99;100647.28;4844843;29;20468;-73
2021/10/20 02:22:40;;;;;;;18.23;15.18;;;18.00;99.90;;;18.22;75.03;100643.78;4844847;29;20041;-73
2021/10/20 02:25:10;;;;;;;24.58;16.48;;;18.00;99.90;;;18.24;75.13;100653.53;4844759;29;20069;-73
2021/10/20 02:27:38;;;;;;;18.58;14.57;;;17.90;99.90;;;18.15;74.91;100635.16;4844674;29;20382;-74
2021/10/20 02:30:10;;;;;;;19.33;16.17;;;17.90;99.90;;;18.27;75.08;100641.81;4844668;29;20121;-74
2021/10/20 02:32:39;;;;;;;20.00;14.80;;;17.90;99.90;;;18.24;74.68;100632.09;4844618;29;20050;-73
2021/10/20 02:35:09;;;;;;;19.25;15.50;;;18.00;99.90;;;17.87;74.69;100568.41;4844806;29;20049;-73
2021/10/20 02:37:38;;;;;;;22.50;16.52;;;18.00;99.90;;;18.19;74.59;100618.03;4844824;29;20106;-73
2021/10/20 02:40:09;;;;;;;21.00;15.82;;;18.00;99.90;;;17.76;74.51;100532.31;4844476;29;20046;-73
2021/10/20 02:42:38;;;;;;;21.48;15.98;;;18.00;99.90;;;18.18;74.63;100599.31;4844513;29;20062;-73
2021/10/20 02:45:11;;;;;;;21.63;15.38;;;17.90;99.90;;;18.16;74.83;100591.34;4844762;29;20533;-74
2021/10/20 02:47:39;;;;;;;19.40;15.75;;;17.90;99.90;;;18.16;74.75;100604.75;4844965;29;20434;-73
2021/10/20 02:50:09;;;;;;;18.65;15.18;;;17.90;99.90;;;18.10;74.52;100580.88;4843326;29;20561;-73
2021/10/20 02:52:38;;;;;;;20.13;15.82;;;18.00;99.90;;;18.27;74.40;100593.63;4843202;29;20054;-73
2021/10/20 02:55:08;;;;;;;20.80;15.32;;;18.00;99.90;;;18.31;74.41;100595.25;4844554;29;20050;-73
2021/10/20 02:57:36;;;;;;;17.80;15.15;;;18.00;99.90;;;18.26;74.37;100582.03;4843156;29;20053;-73
2021/10/20 03:00:06;;;;;;;20.80;15.32;;;18.00;99.90;;;18.14;74.49;100558.41;4844081;29;20057;-73
2021/10/20 03:02:36;;;;;;;18.50;15.80;;;17.90;99.90;;;18.22;74.42;100580.41;4844191;29;20058;-73
2021/10/20 03:05:06;;;;;;;23.88;15.88;;;18.00;99.90;;;18.22;74.28;100587.56;4844097;29;20069;-73
2021/10/20 03:07:35;;;;;;;27.45;16.48;;;17.90;99.90;;;18.16;74.49;100571.75;4843025;29;20130;-73
2021/10/20 03:10:06;;;;;;;20.52;16.98;;;17.90;99.90;;;18.13;73.85;100562.03;4843965;29;20049;-73
2021/10/20 03:12:34;;;;;;;20.92;16.08;;;17.90;99.90;;;18.17;73.71;100571.69;4843919;29;20054;-74
2021/10/20 03:15:03;;;;;;;26.15;16.80;;;17.90;99.90;;;18.24;73.51;100565.16;4844225;29;20124;-73
2021/10/20 03:17:31;;;;;;;23.52;17.15;;;17.90;99.90;;;18.20;73.36;100571.56;4843847;29;20193;-73
2021/10/20 03:20:01;;;;;;;24.02;17.13;;;17.90;99.90;;;18.22;73.25;100571.50;4844071;29;20042;-73
2021/10/20 03:22:32;;;;;;;21.73;16.63;;;17.90;99.90;;;18.27;73.41;100567.72;4843791;29;20054;-74
2021/10/20 03:25:01;;;;;;;26.85;17.63;;;17.90;99.90;;;18.22;73.72;100569.69;4843792;29;20050;-73
2021/10/20 03:27:29;;;;;;;25.25;16.23;;;17.90;99.90;;;18.18;73.75;100562.72;4842685;29;20078;-73
2021/10/20 03:29:58;;;;;;;20.08;15.57;;;17.90;99.90;;;18.17;73.85;100544.06;4843552;29;20057;-73
2021/10/20 03:32:26;;;;;;;21.05;18.13;;;18.00;99.90;;;18.27;73.76;100574.88;4843467;29;20121;-73
2021/10/20 03:34:54;;;;;;;23.00;16.92;;;18.00;99.90;;;18.16;74.11;100564.59;4842555;29;20466;-73
2021/10/20 03:37:24;;;;;;;21.75;16.98;;;17.90;99.90;;;18.12;74.21;100557.59;4843504;29;20073;-73
2021/10/20 03:39:53;;;;;;;22.23;17.00;;;17.90;99.90;;;18.13;74.49;100555.81;4843739;29;20053;-73
2021/10/20 03:42:21;;;;;;;21.23;17.10;;;17.90;99.90;;;18.08;74.76;100566.69;4843394;29;20053;-73
2021/10/20 03:44:51;;;;;;;20.95;17.50;;;17.80;99.90;;;18.17;74.86;100550.28;4843700;29;20484;-73
2021/10/20 03:47:20;;;;;;;22.30;17.67;;;17.80;99.90;;;18.09;75.03;100549.72;4843294;29;20053;-73
2021/10/20 03:49:49;;;;;;;21.65;17.05;;;17.80;99.90;;;18.15;75.02;100549.47;4843285;29;20137;-73
2021/10/20 03:52:19;;;;;;;24.08;16.52;;;17.80;99.90;;;17.93;75.36;100564.63;4843493;29;20098;-74
2021/10/20 03:54:49;;;;;;;22.83;16.13;;;17.90;99.90;;;18.21;75.30;100538.53;4841956;29;20163;-73
2021/10/20 03:57:17;;;;;;;20.20;15.90;;;17.90;99.90;;;18.16;75.49;100537.81;4843321;29;20485;-73
2021/10/20 03:59:46;;;;;;;23.63;16.73;;;17.90;99.90;;;18.16;75.44;100536.94;4843139;29;20050;-73
2021/10/20 04:02:15;;;;;;;19.92;16.13;;;17.90;99.90;;;18.20;75.37;100525.16;4843302;29;20061;-73
2021/10/20 04:04:43;;;;;;;21.02;15.63;;;17.90;99.90;;;18.21;75.44;100516.22;4843025;29;20045;-73
2021/10/20 04:07:12;;;;;;;21.77;17.13;;;18.00;99.90;;;18.24;75.38;100521.44;4843013;29;20050;-73
2021/10/20 04:09:41;;;;;;;19.60;15.77;;;17.90;99.90;;;18.24;75.46;100500.88;4842959;29;20166;-77
2021/10/20 04:12:10;;;;;;;18.13;15.45;;;17.90;99.90;;;18.24;75.60;100522.31;4841878;29;20492;-76
2021/10/20 04:14:39;;;;;;;18.35;14.93;;;17.90;99.90;;;18.27;75.50;100499.91;4842694;29;20057;-74
2021/10/20 04:17:07;;;;;;;18.67;15.18;;;18.00;99.90;;;18.30;75.36;100495.28;4842844;29;20069;-75
2021/10/20 04:19:36;;;;;;;20.38;15.75;;;18.00;99.90;;;18.26;75.48;100511.53;4842783;29;20466;-78
2021/10/20 04:22:04;;;;;;;21.50;15.65;;;18.00;99.90;;;18.28;75.52;100502.50;4841764;29;20148;-76
2021/10/20 04:24:33;;;;;;;19.40;14.77;;;18.00;99.90;;;18.24;75.57;100486.63;4843249;29;20045;-79
2021/10/20 04:27:01;;;;;;;21.88;15.98;;;18.00;99.90;;;18.26;75.64;100504.38;4843016;29;20070;-79
2021/10/20 04:29:31;;;;;;;22.02;15.77;;;18.00;99.90;;;18.24;76.88;100500.88;4842642;29;20054;-79
2021/10/20 04:31:59;;;;;;;21.97;16.33;;;17.90;99.90;;;18.26;77.74;100500.81;4841607;29;20052;-79
2021/10/20 04:34:28;;;;;;;19.77;15.70;;;17.90;99.90;;;18.16;78.51;100503.00;4842543;29;20046;-78
2021/10/20 04:36:56;;;;;;;22.75;16.88;;;17.90;99.90;;;18.09;79.62;100503.31;4842856;29;20125;-78
2021/10/20 04:39:25;;;;;;;21.92;16.67;;;17.80;99.90;;;18.04;80.29;100500.81;4842483;29;20545;-78
2021/10/20 04:41:53;;;;;;;19.55;16.90;;;17.70;99.90;;;17.82;80.87;100489.25;4841362;29;20065;-79
2021/10/20 04:44:21;;;;;;;22.60;18.25;;;17.70;99.90;;;17.88;82.13;100499.72;4842374;29;20397;-79
2021/10/20 04:46:51;;;;;;;26.98;17.58;;;17.50;99.90;;;17.85;82.98;100505.19;4841395;29;20073;-78
2021/10/20 04:49:19;;;;;;;25.90;18.70;;;17.50;99.90;;;17.68;83.39;100500.50;4841503;29;20082;-78
2021/10/20 04:51:48;;;;;;;29.65;19.83;;;17.40;99.90;;;17.73;83.69;100500.34;4842278;29;20343;-78
2021/10/20 04:54:17;;;;;;;28.30;20.30;;;17.40;99.90;;;17.68;84.11;100486.25;4842269;29;20378;-79
2021/10/20 04:56:45;;;;;;;25.65;20.95;;;17.40;99.90;;;17.61;84.30;100482.97;4842477;29;20136;-79
2021/10/20 04:59:13;;;;;;;23.75;19.33;;;17.30;99.90;;;17.63;84.60;100498.97;4842600;29;20038;-80
2021/10/20 05:01:42;;;;;;;25.70;19.55;;;17.30;99.90;;;17.58;84.75;100488.41;4841310;29;20561;-78
2021/10/20 05:04:12;;;;;;;27.40;19.88;;;17.30;99.90;;;17.45;84.76;100462.19;4842292;29;20045;-78
2021/10/20 05:06:40;;;;;;;25.52;19.52;;;17.20;99.90;;;17.62;84.73;100484.69;4842252;29;20049;-79
2021/10/20 05:09:08;;;;;;;24.48;19.08;;;17.30;99.90;;;17.50;84.24;100452.22;4842303;29;20128;-79
2021/10/20 05:11:37;;;;;;;24.65;17.17;;;17.30;99.90;;;17.68;84.00;100462.19;4842439;29;20396;-79
2021/10/20 05:14:05;;;;;;;26.45;18.92;;;17.30;99.90;;;17.52;83.48;100404.88;4842259;29;20056;-79
2021/10/20 05:16:34;;;;;;;23.50;18.08;;;17.40;99.90;;;17.64;83.67;100436.47;4842224;29;20073;-79
2021/10/20 05:19:02;;;;;;;24.30;18.52;;;17.40;99.90;;;17.69;83.88;100453.25;4842452;29;20102;-79
2021/10/20 05:21:32;;;;;;;25.15;18.70;;;17.30;99.90;;;17.59;83.52;100447.38;4842194;29;20045;-79
2021/10/20 05:24:01;;;;;;;20.33;18.13;;;17.40;99.90;;;17.63;83.81;100437.44;4842430;29;20054;-80
2021/10/20 05:26:29;;;;;;;21.42;17.73;;;17.30;99.90;;;17.68;83.75;100432.75;4842007;29;20157;-79
2021/10/20 05:28:58;;;;;;;24.25;18.95;;;17.40;99.90;;;17.72;83.87;100435.25;4842167;29;20565;-79
2021/10/20 05:31:26;;;;;;;25.02;18.40;;;17.40;99.90;;;17.77;83.78;100422.56;4841041;29;20491;-79
2021/10/20 05:33:54;;;;;;;25.58;18.33;;;17.40;99.90;;;17.65;84.20;100420.38;4842008;29;20560;-79
2021/10/20 05:36:23;;;;;;;23.58;17.50;;;17.40;99.90;;;17.69;84.45;100421.97;4842021;29;20125;-78
2021/10/20 05:38:53;;;;;;;20.30;17.50;;;17.40;99.90;;;17.66;84.37;100402.53;4842265;29;20054;-79
2021/10/20 05:41:22;;;;;;;22.93;17.67;;;17.40;99.90;;;17.71;84.74;100390.69;4842037;29;20078;-79
2021/10/20 05:43:50;;;;;;;21.98;17.50;;;17.40;99.90;;;17.80;84.64;100382.31;4842237;29;20107;-79
2021/10/20 05:46:18;;;;;;;24.73;17.90;;;17.50;99.90;;;17.79;84.55;100369.84;4841063;29;20085;-79
2021/10/20 05:48:47;;;;;;;21.52;17.40;;;17.50;99.90;;;17.81;84.75;100373.34;4841897;29;20102;-78
2021/10/20 05:51:15;;;;;;;24.60;17.08;;;17.50;99.90;;;17.84;85.25;100380.38;4842219;29;20065;-78
2021/10/20 05:53:44;;;;;;;25.08;17.45;;;17.50;99.90;;;17.82;85.79;100363.50;4844031;29;20107;-79
2021/10/20 05:56:13;;;;;;;22.92;17.75;;;17.50;99.90;;;17.85;86.09;100360.69;4845000;29;20086;-79
2021/10/20 05:58:42;;;;;;;24.77;19.03;;;17.50;99.90;;;17.83;86.38;100352.72;4845373;29;20054;-79
2021/10/20 06:01:12;;;;;;;19.90;16.85;;;17.50;99.90;;;17.90;86.12;100366.75;4845672;29;20297;-80
2021/10/20 06:03:41;;;;;;;22.30;17.80;;;17.60;99.90;;;17.67;86.11;100343.59;4845159;29;20517;-80
2021/10/20 06:06:09;;;;;;;20.90;15.75;;;17.60;99.90;;;17.97;85.69;100376.22;4845068;29;20103;-79
2021/10/20 06:08:37;;;;;;;18.25;14.07;;;17.70;99.90;;;17.86;84.34;100366.00;4844951;29;20050;-79
2021/10/20 06:11:06;;;;;;;19.02;15.50;;;17.60;99.90;;;17.91;83.46;100372.00;4845003;29;20086;-78
2021/10/20 06:13:36;;;;;;;19.45;15.43;;;17.60;99.90;;;17.89;83.02;100359.63;4845132;29;20426;-80
2021/10/20 06:16:05;;;;;;;16.43;13.20;;;17.60;99.90;;;17.83;83.01;100349.19;4844988;29;20058;-82
2021/10/20 06:18:33;;;;;;;22.10;14.13;;;17.60;99.90;;;17.83;83.07;100363.44;4844865;29;20576;-78
2021/10/20 06:21:02;;;;;;;18.52;14.45;;;17.60;99.90;;;17.84;83.17;100361.63;4844817;29;20106;-76
2021/10/20 06:23:30;;;;;;;17.70;13.35;;;17.50;99.90;;;17.84;83.28;100370.53;4844728;29;20084;-79
2021/10/20 06:26:00;;;;;;;15.52;13.27;;;17.60;99.90;;;17.87;83.84;100373.06;4844727;29;20102;-73
2021/10/20 06:28:28;;;;;;;15.60;13.10;;;17.60;99.90;;;17.78;84.40;100351.19;4844948;29;20420;-74
2021/10/20 06:30:58;;;;;;;15.45;12.70;;;17.50;99.90;;;17.83;84.79;100341.16;4844675;29;20064;-74
2021/10/20 06:33:27;;;;;;;18.05;13.43;;;17.50;99.90;;;17.67;85.52;100372.19;4844908;29;20076;-72
2021/10/20 06:35:56;;;;;;;15.55;11.95;;;17.40;99.90;;;17.57;86.23;100357.44;4844395;29;20050;-71
2021/10/20 06:38:24;;;;;;;19.63;12.93;;;17.30;99.90;;;17.52;86.90;100346.03;4844768;29;20118;-73
2021/10/20 06:40:53;;;;;;;14.30;12.07;;;17.20;99.90;;;17.41;87.70;100349.13;4844691;29;20050;-72
2021/10/20 06:43:21;;;;;;;14.35;12.85;;;17.10;99.90;;;17.33;88.39;100334.31;4843411;29;20046;-71
2021/10/20 06:45:51;;;;;;;16.13;12.30;;;17.10;99.90;;;17.21;89.24;100324.16;4844424;29;20045;-72
2021/10/20 06:48:21;;;;;;;14.88;13.05;;;17.00;99.90;;;17.26;89.75;100328.38;4844366;29;20100;-80
2021/10/20 06:50:50;;;;;;;17.03;12.37;;;17.00;99.90;;;17.16;90.33;100289.56;4844598;29;20061;-79
2021/10/20 06:53:18;;;;;;;15.10;11.77;;;16.90;99.90;;;17.08;90.75;100271.19;4843306;29;20331;-77
2021/10/20 06:55:47;;;;;;;16.20;12.38;;;16.90;99.90;;;17.13;91.35;100287.00;4844248;29;20054;-84
2021/10/20 06:58:15;;;;;;;17.77;13.07;;;16.90;99.90;;;17.11;91.79;100283.56;4844450;29;20133;-76
2021/10/20 07:00:44;;;;;;;17.92;13.20;;;16.80;99.90;;;17.14;91.82;100262.91;4844121;29;20065;-76
2021/10/20 07:03:12;;;;;;;15.60;12.50;;;16.90;99.90;;;17.17;91.96;100239.66;4843903;29;20408;-77
2021/10/20 07:05:42;;;;;;;15.95;12.50;;;16.90;99.90;;;17.11;91.92;100222.94;4844298;29;20053;-77
2021/10/20 07:08:10;;;;;;;17.60;14.20;;;16.90;99.90;;;17.00;92.16;100192.25;4844604;29;20046;-77
2021/10/20 07:10:39;;;;;;;17.13;14.57;;;16.90;99.90;;;17.04;92.43;100208.09;4844182;29;20405;-76
2021/10/20 07:13:07;;;;;;;21.23;14.43;;;16.80;99.90;;;17.02;92.74;100175.22;4843877;29;20457;-75
2021/10/20 07:15:36;;;;;;;22.10;14.10;;;16.80;99.90;;;16.97;92.92;100176.34;4843789;29;20046;-75
2021/10/20 07:18:05;;;;;;;23.40;16.08;;;16.80;99.90;;;16.99;93.31;100167.31;4844645;29;20073;-73
2021/10/20 07:20:33;;;;;;;23.00;15.50;;;16.80;99.90;;;16.87;93.51;100166.97;4844539;29;20057;-75
2021/10/20 07:23:03;;;;;;;18.85;14.77;;;16.70;99.90;;;16.94;93.42;100188.03;4843935;29;20061;-75
2021/10/20 07:25:32;;;;;;;19.65;14.57;;;16.70;99.90;;;16.89;93.73;100205.19;4844271;29;20053;-76
2021/10/20 07:28:00;;;;;;;22.42;15.02;;;16.70;99.90;;;16.84;94.25;100185.81;4843680;29;20113;-76
2021/10/20 07:30:29;;;;;;;20.70;15.07;;;16.60;99.90;;;16.70;94.85;100199.72;4843771;29;20061;-76
2021/10/20 07:32:57;;;;;;;23.48;15.32;;;16.50;99.90;;;16.68;95.11;100188.25;4843757;29;20396;-75
2021/10/20 07:35:26;;;;;;;20.35;15.45;;;16.50;99.90;;;16.67;95.41;100204.28;4842475;29;20054;-75
2021/10/20 07:37:54;;;;;;;21.52;15.75;;;16.50;99.90;;;16.60;95.56;100217.03;4843773;29;20054;-76
2021/10/20 07:40:24;;;;;;;18.25;14.82;;;16.50;99.90;;;16.67;95.66;100209.63;4842486;29;20446;-77
2021/10/20 07:42:53;;;;;;;20.42;14.63;;;16.50;99.90;;;16.60;96.05;100205.47;4843750;29;20622;-76
2021/10/20 07:45:22;;;;;;;18.70;14.68;;;16.40;99.90;;;16.57;95.98;100226.97;4843275;29;20106;-75
2021/10/20 07:47:51;;;;;;;21.45;14.05;;;16.40;99.90;;;16.60;96.12;100203.69;4843802;29;20099;-74
2021/10/20 07:50:22;;;;;;;15.88;13.70;;;16.40;99.90;;;16.65;95.86;100207.03;4843369;29;20045;-75
2021/10/20 07:52:51;;;;;;;18.25;13.00;;;16.40;99.90;;;16.72;95.82;100229.03;4842346;29;20569;-74
2021/10/20 07:55:25;;;;;;;16.53;13.13;;;16.50;99.90;;;16.82;95.92;100219.72;4843380;29;20046;-75
2021/10/20 07:57:55;;;;;;;13.60;12.30;;;16.60;99.90;;;16.98;95.37;100210.16;4843207;29;20050;-75
2021/10/20 08:00:24;;;;;;;17.17;13.50;;;16.70;99.90;;;17.15;94.90;100176.44;4842070;29;20054;-75
2021/10/20 08:02:53;;;;;;;17.70;12.43;;;16.90;99.90;;;17.28;94.01;100224.03;4843313;29;20049;-75
2021/10/20 08:05:22;;;;;;;15.95;13.30;;;17.00;99.90;;;17.32;93.53;100233.69;4843004;29;20046;-75
2021/10/20 08:07:52;;;;;;;16.25;12.98;;;17.10;99.90;;;17.36;93.30;100230.81;4841942;29;20118;-76
2021/10/20 08:10:23;;;;;;;15.32;12.35;;;17.10;99.90;;;17.36;92.98;100181.81;4843083;29;20071;-75
2021/10/20 08:12:54;;;;;;;16.88;12.75;;;17.20;99.90;;;17.55;92.06;100201.50;4842863;29;20070;-76
2021/10/20 08:15:23;;;;;;;;;;;17.30;99.90;;;17.72;91.57;100165.06;4843045;29;20057;-77
2021/10/20 08:17:52;;;;;;;17.10;13.32;;;17.50;99.90;;;18.01;89.93;100169.09;4842957;29;19928;-77
2021/10/20 08:20:23;;;;;;;19.45;13.60;;;17.70;99.90;;;17.95;89.57;100217.53;4842980;29;20046;-77
2021/10/20 08:22:51;;;;;;;15.30;13.70;;;17.70;99.90;;;17.76;89.74;100232.66;4842725;29;20501;-77
2021/10/20 08:25:20;;;;;;;19.20;14.02;;;17.50;99.90;;;17.76;90.23;100238.03;4843126;29;20045;-77
2021/10/20 08:27:48;;;;;;;16.50;13.98;;;17.50;99.90;;;17.82;90.42;100216.34;4843073;29;20050;-77
2021/10/20 08:30:18;;;;;;;15.55;12.60;;;17.50;99.90;;;17.92;90.62;100194.44;4842668;29;20073;-77
2021/10/20 08:32:50;;;;;;;15.20;13.60;;;17.60;99.90;;;18.09;90.28;100191.03;4842581;29;20046;-77
2021/10/20 08:35:20;;;;;;;15.75;13.30;;;17.80;99.90;;;18.28;89.52;100186.56;4842527;29;20050;-77
2021/10/20 08:37:54;;;;;;;22.60;14.23;;;17.90;99.90;;;18.46;88.59;100180.38;4842796;29;20049;-77
2021/10/20 08:40:26;;;;;;;16.27;14.25;;;18.10;99.90;;;18.80;87.47;100196.53;4842515;29;20049;-77
2021/10/20 08:42:56;;;;;;;21.15;13.93;;;18.40;99.90;;;18.86;86.37;100172.13;4841554;29;20054;-78
2021/10/20 08:45:26;;;;;;;17.75;13.85;;;18.60;99.90;;;18.97;85.61;100170.75;4842321;29;20077;-78
2021/10/20 08:47:55;;;;;;;18.95;13.80;;;18.80;99.90;;;18.91;85.06;100169.25;4841482;29;20545;-78
2021/10/20 08:50:26;;;;;;;18.55;13.45;;;18.80;99.90;;;19.03;85.29;100203.44;4842369;29;20094;-77
2021/10/20 08:52:55;;;;;;;16.35;14.20;;;18.80;99.90;;;18.77;85.33;100185.13;4842702;29;20057;-77
2021/10/20 08:55:25;;;;;;;14.20;12.65;;;18.60;99.90;;;18.57;86.08;100194.13;4842104;29;20137;-76
2021/10/20 08:57:56;;;;;;;15.67;13.20;;;18.40;99.90;;;18.40;86.78;100161.00;4842915;29;20050;-78
2021/10/20 09:00:26;;;;;;;14.63;13.15;;;18.30;99.90;;;18.42;87.15;100161.81;4842532;29;20057;-77
2021/10/20 09:02:55;;;;;;;19.25;13.75;;;18.20;99.90;;;18.29;87.60;100164.19;4841405;29;20061;-78
2021/10/20 09:05:27;;;;;;;17.17;14.30;;;18.10;99.90;;;18.31;87.83;100156.94;4842517;29;20081;-77
2021/10/20 09:07:57;;;;;;;15.75;14.18;;;18.10;99.90;;;18.33;88.38;100154.22;4842300;29;20565;-78
2021/10/20 09:10:28;;;;;;;17.73;13.65;;;18.10;99.90;;;18.34;88.40;100166.66;4842235;29;20094;-78
2021/10/20 09:12:58;;;;;;;16.17;13.35;;;18.00;99.90;;;17.95;88.61;100115.84;4842279;29;20050;-78
2021/10/20 09:15:30;;;;;;;17.73;13.98;;;18.00;99.90;;;18.20;88.70;100169.97;4841043;29;20062;-77
2021/10/20 09:18:03;;;;;;;17.10;13.15;;;18.00;99.90;;;18.19;88.81;100162.91;4842277;29;20382;-78
2021/10/20 09:20:36;;;;;;;15.40;13.75;;;17.90;99.90;;;18.11;89.08;100149.00;4842573;29;20053;-77
2021/10/20 09:23:09;;;;;;;17.25;13.85;;;17.90;99.90;;;18.06;89.52;100158.19;4842247;29;20074;-77
2021/10/20 09:25:44;;;;;;;19.70;13.40;;;17.80;99.90;;;18.16;89.58;100160.34;4841284;29;20110;-78
2021/10/20 09:28:20;;;;;;;16.13;13.40;;;17.80;99.90;;;18.23;89.51;100164.50;4845297;29;20114;-77
2021/10/20 09:30:51;;;;;;;13.02;11.63;;;17.90;99.90;;;18.16;89.46;100146.97;4846059;29;20097;-77
2021/10/20 09:33:20;;;;;;;;;;;17.90;99.90;;;18.20;89.74;100145.88;4846190;29;20098;-78
2021/10/20 09:35:48;;;;;;;20.92;13.43;;;17.90;99.90;;;18.27;89.99;100158.06;4844664;29;20344;-78
2021/10/20 09:38:17;;;;;;;15.38;13.02;;;18.00;99.90;;;18.26;89.62;100150.94;4845955;29;20110;-77
2021/10/20 09:40:49;;;;;;;17.55;13.10;;;18.00;99.90;;;18.23;89.57;100142.19;4845498;29;20129;-78
2021/10/20 09:43:20;;;;;;;15.93;12.32;;;17.90;99.90;;;18.14;89.79;100148.84;4845467;29;20049;-78
2021/10/20 09:45:50;;;;;;;14.20;12.70;;;17.90;99.90;;;18.23;90.08;100148.44;4845817;29;20458;-78
2021/10/20 09:48:21;;;;;;;16.77;12.40;;;17.90;99.90;;;17.62;89.74;100043.38;4845375;29;20561;-78
2021/10/20 09:51:02;;;;;;;16.42;12.98;;;17.90;99.90;;;18.21;89.92;100171.72;4845661;29;20088;-77
2021/10/20 09:53:33;;;;;;;15.07;12.48;;;17.90;99.90;;;18.18;89.96;100162.94;4845407;29;20504;-77
2021/10/20 09:56:07;;;;;;;17.00;13.15;;;17.90;99.90;;;18.22;89.98;100148.47;4845019;29;20527;-77
2021/10/20 09:58:35;;;;;;;15.23;11.75;;;17.90;99.90;;;18.11;89.63;100119.56;4845849;29;20050;-77
2021/10/20 10:01:05;;;;;;;15.10;12.20;;;18.00;99.90;;;18.11;89.77;100127.59;4845201;29;20465;-77
2021/10/20 10:03:35;;;;;;;20.25;12.82;;;18.00;99.90;;;18.30;89.99;100147.19;4845198;29;20049;-77
2021/10/20 10:06:04;;;;;;;12.95;10.85;;;18.00;99.90;;;18.25;89.67;100133.16;4845183;29;20092;-77
2021/10/20 10:08:32;;;;;;;16.42;11.18;;;18.10;99.90;;;18.34;89.77;100156.81;4845330;29;20046;-77